createdAt,value
2019-02-22T00:02:27.825Z,25.33
2019-02-22T00:32:32.689Z,11.60
2019-02-22T01:02:38.084Z,11.67
2019-02-22T01:32:42.936Z,7.83
2019-02-22T02:02:48.174Z,11.07
2019-02-22T02:32:53.057Z,4.70
2019-02-22T03:02:59.408Z,3.37
2019-02-22T03:33:04.251Z,2.80
2019-02-22T04:03:09.687Z,6.47
2019-02-22T04:33:14.544Z,23.63
2019-02-22T05:03:19.784Z,3.83
2019-02-22T05:33:24.546Z,1.83
2019-02-22T06:03:29.842Z,5.80
2019-02-22T06:33:34.589Z,4.07
2019-02-22T07:03:39.332Z,7.20
2019-02-22T07:33:44.153Z,4.40
2019-02-22T08:03:48.972Z,3.13
2019-02-22T08:33:53.864Z,2.20
2019-02-22T09:03:58.642Z,1.10
2019-02-22T09:34:03.449Z,3.90
2019-02-22T10:04:08.199Z,3.93
2019-02-22T10:34:13.216Z,3.23
2019-02-22T11:04:18.053Z,2.80
2019-02-22T11:34:22.960Z,3.33
2019-02-22T12:04:27.718Z,2.80
2019-02-22T12:34:32.539Z,1.93
2019-02-22T13:04:37.305Z,1.47
2019-02-22T13:34:42.462Z,10.17
2019-02-22T14:04:47.160Z,5.10
2019-02-22T14:34:52.215Z,8.10
2019-02-22T15:04:56.963Z,10.67
2019-02-22T15:35:02.017Z,12.30
2019-02-22T16:05:10.333Z,64.10
2019-02-22T16:35:15.601Z,16.93
2019-02-22T17:05:20.434Z,14.13
2019-02-22T17:35:25.514Z,15.60
2019-02-22T18:05:30.373Z,15.33
2019-02-22T18:35:35.132Z,17.77
2019-02-22T19:05:39.891Z,30.97
2019-02-22T19:35:44.675Z,47.10
2019-02-22T20:05:49.539Z,111.50
2019-02-22T20:35:54.292Z,251.47
2019-02-22T21:05:59.141Z,322.60
2019-02-22T21:36:03.909Z,119.37
2019-02-22T22:06:08.744Z,86.00
2019-02-22T22:36:13.515Z,71.70
2019-02-22T23:06:18.516Z,125.07
2019-02-22T23:36:35.196Z,211.53
